createdAt,value
2018-05-08T00:00:27.320Z,53.48
2018-05-08T00:01:33.087Z,53.56
2018-05-08T00:02:40.383Z,53.67
2018-05-08T00:03:46.209Z,53.72
2018-05-08T00:04:52.426Z,53.89
2018-05-08T00:05:58.254Z,53.96
2018-05-08T00:07:04.089Z,54.04
2018-05-08T00:08:10.658Z,54.12
2018-05-08T00:09:16.334Z,54.15
2018-05-08T00:10:22.124Z,54.17
2018-05-08T00:11:28.733Z,54.25
2018-05-08T00:12:34.552Z,54.34
2018-05-08T00:13:40.349Z,54.33
2018-05-08T00:14:46.292Z,54.36
2018-05-08T00:15:52.889Z,54.45
2018-05-08T00:16:58.699Z,54.55
2018-05-08T00:18:04.590Z,54.57
2018-05-08T00:19:10.347Z,54.63
2018-05-08T00:20:16.129Z,54.69
2018-05-08T00:21:21.878Z,54.92
2018-05-08T00:22:28.420Z,55.04
2018-05-08T00:23:34.943Z,55.09
2018-05-08T00:24:40.702Z,55.20
2018-05-08T00:25:46.483Z,55.09
2018-05-08T00:26:53.015Z,55.19
2018-05-08T00:27:58.791Z,55.31
2018-05-08T00:29:05.311Z,55.41
2018-05-08T00:30:11.104Z,55.40
2018-05-08T00:31:17.322Z,55.38
2018-05-08T00:32:23.075Z,55.42
2018-05-08T00:33:29.591Z,55.45
2018-05-08T00:34:35.344Z,55.39
2018-05-08T00:35:41.099Z,55.47
2018-05-08T00:36:46.884Z,55.48
2018-05-08T00:37:52.643Z,55.74
2018-05-08T00:38:59.138Z,55.71
2018-05-08T00:40:04.326Z,55.86
2018-05-08T00:41:09.765Z,55.95
2018-05-08T00:42:15.535Z,55.94
2018-05-08T00:43:21.290Z,55.87
2018-05-08T00:44:27.073Z,55.99
2018-05-08T00:45:32.827Z,55.99
2018-05-08T00:46:38.658Z,56.02
2018-05-08T00:47:44.452Z,56.26
2018-05-08T00:48:50.207Z,56.22
2018-05-08T00:49:55.973Z,56.13
2018-05-08T00:51:02.505Z,56.27
2018-05-08T00:52:08.259Z,56.36
2018-05-08T00:53:14.806Z,56.36
2018-05-08T00:56:04.028Z,56.46
2018-05-08T00:57:09.775Z,56.75
2018-05-08T00:58:15.562Z,56.72
2018-05-08T00:59:22.113Z,56.68
2018-05-08T01:00:27.942Z,56.84
2018-05-08T01:01:33.704Z,56.96
2018-05-08T01:02:39.534Z,56.89
2018-05-08T01:03:45.427Z,56.84
2018-05-08T01:04:51.181Z,56.80
2018-05-08T01:05:56.952Z,56.79
2018-05-08T01:07:02.715Z,56.77
2018-05-08T01:08:09.245Z,56.93
2018-05-08T01:09:15.019Z,56.99
2018-05-08T01:10:22.287Z,57.10
2018-05-08T01:11:28.059Z,57.29
2018-05-08T01:12:34.587Z,57.32
2018-05-08T01:13:40.338Z,57.40
2018-05-08T01:14:46.124Z,57.36
2018-05-08T01:15:51.652Z,57.41
2018-05-08T01:16:57.475Z,57.39
2018-05-08T01:18:03.397Z,57.44
2018-05-08T01:19:09.931Z,57.41
2018-05-08T01:20:15.705Z,57.48
2018-05-08T01:21:21.463Z,57.54
2018-05-08T01:22:27.988Z,57.53
2018-05-08T01:23:33.751Z,57.57
2018-05-08T01:24:39.506Z,57.66
2018-05-08T01:25:46.066Z,57.70
2018-05-08T01:26:52.584Z,57.73
2018-05-08T01:27:58.341Z,57.83
2018-05-08T01:29:04.102Z,57.91
2018-05-08T01:30:10.630Z,58.10
2018-05-08T01:31:17.170Z,58.16
2018-05-08T01:32:22.930Z,58.28
2018-05-08T01:33:28.719Z,58.34
2018-05-08T01:34:35.293Z,58.52
2018-05-08T01:35:40.824Z,58.56
2018-05-08T01:36:46.605Z,58.50
2018-05-08T01:37:52.390Z,58.56
2018-05-08T01:38:58.954Z,58.66
2018-05-08T01:40:05.483Z,58.73
2018-05-08T01:41:11.280Z,58.89
2018-05-08T01:42:16.818Z,58.93
2018-05-08T01:43:22.628Z,58.88
2018-05-08T01:44:28.298Z,58.95
2018-05-08T01:45:34.069Z,58.89
2018-05-08T01:46:39.834Z,59.20
2018-05-08T01:47:45.615Z,59.07
2018-05-08T01:48:51.364Z,59.08
2018-05-08T01:49:57.138Z,59.19
2018-05-08T01:51:02.883Z,59.22
2018-05-08T01:52:08.646Z,59.22
2018-05-08T01:53:14.470Z,59.33
2018-05-08T01:54:19.990Z,59.42
2018-05-08T01:55:25.778Z,59.31
2018-05-08T01:56:32.077Z,59.29
2018-05-08T01:57:37.840Z,59.44
2018-05-08T01:58:43.688Z,59.43
2018-05-08T01:59:49.439Z,59.38
2018-05-08T02:00:55.204Z,59.36
2018-05-08T02:02:00.958Z,59.51
2018-05-08T02:03:06.708Z,59.50
2018-05-08T02:04:13.244Z,59.53
2018-05-08T02:05:19.549Z,59.57
2018-05-08T02:06:25.316Z,59.67
2018-05-08T02:07:30.841Z,59.69
2018-05-08T02:08:36.657Z,59.85
2018-05-08T02:09:42.447Z,59.94
2018-05-08T02:10:48.195Z,60.13
2018-05-08T02:11:53.951Z,60.29
2018-05-08T02:13:00.487Z,60.43
2018-05-08T02:14:06.331Z,60.61
2018-05-08T02:15:12.106Z,60.69
2018-05-08T02:16:18.629Z,60.91
2018-05-08T02:17:24.383Z,60.97
2018-05-08T02:18:30.131Z,61.05
2018-05-08T02:19:36.652Z,60.99
2018-05-08T02:20:42.427Z,60.99
2018-05-08T02:21:48.198Z,61.15
2018-05-08T02:22:54.747Z,61.38
2018-05-08T02:24:01.267Z,61.39
2018-05-08T02:25:07.028Z,61.46
2018-05-08T02:26:13.574Z,61.47
2018-05-08T02:27:19.333Z,61.60
2018-05-08T02:28:25.109Z,61.65
2018-05-08T02:29:31.155Z,61.65
2018-05-08T02:30:36.918Z,61.72
2018-05-08T02:31:42.696Z,61.87
2018-05-08T02:32:48.453Z,61.90
2018-05-08T02:33:54.203Z,61.92
2018-05-08T02:35:00.722Z,61.89
2018-05-08T02:36:07.223Z,61.95
2018-05-08T02:37:13.780Z,62.16
2018-05-08T02:38:20.307Z,62.20
2018-05-08T02:39:26.069Z,62.19
2018-05-08T02:40:32.035Z,62.19
2018-05-08T02:41:38.547Z,62.21
2018-05-08T02:42:44.311Z,62.32
2018-05-08T02:43:50.085Z,62.30
2018-05-08T02:44:56.599Z,62.30
2018-05-08T02:46:02.343Z,62.44
2018-05-08T02:47:07.900Z,62.41
2018-05-08T02:48:13.670Z,62.37
2018-05-08T02:49:19.417Z,62.39
2018-05-08T02:50:25.171Z,62.55
2018-05-08T02:51:30.923Z,62.69
2018-05-08T02:52:36.728Z,62.68
2018-05-08T02:53:42.674Z,62.75
2018-05-08T02:54:49.196Z,62.82
2018-05-08T02:55:54.951Z,62.98
2018-05-08T02:57:00.720Z,63.03
2018-05-08T02:58:07.235Z,63.03
2018-05-08T02:59:13.020Z,63.09
2018-05-08T03:00:19.539Z,63.16
2018-05-08T03:01:25.547Z,63.14
2018-05-08T03:02:31.319Z,63.23
2018-05-08T03:03:37.100Z,63.29
2018-05-08T03:04:43.945Z,63.30
2018-05-08T03:05:49.421Z,63.24
2018-05-08T03:06:55.926Z,63.27
2018-05-08T03:08:01.688Z,63.29
2018-05-08T03:09:07.991Z,63.23
2018-05-08T03:10:13.816Z,63.27
2018-05-08T03:11:19.865Z,63.18
2018-05-08T03:12:25.619Z,63.32
2018-05-08T03:13:31.375Z,63.35
2018-05-08T03:14:37.138Z,63.45
2018-05-08T03:15:42.922Z,63.47
2018-05-08T03:16:49.440Z,63.41
2018-05-08T03:17:55.217Z,63.40
2018-05-08T03:19:01.742Z,63.65
2018-05-08T03:20:07.493Z,63.52
2018-05-08T03:21:13.272Z,63.46
2018-05-08T03:22:19.819Z,63.38
2018-05-08T03:23:25.754Z,63.45
2018-05-08T03:24:31.503Z,63.66
2018-05-08T03:25:38.044Z,63.79
2018-05-08T03:26:44.577Z,63.99
2018-05-08T03:27:50.383Z,63.84
2018-05-08T03:28:56.899Z,64.00
2018-05-08T03:30:02.648Z,64.10
2018-05-08T03:31:09.903Z,64.05
2018-05-08T03:32:15.671Z,64.09
2018-05-08T03:33:22.202Z,64.10
2018-05-08T03:34:27.990Z,64.08
2018-05-08T03:35:34.500Z,64.00
2018-05-08T03:36:40.259Z,64.04
2018-05-08T03:37:46.092Z,64.03
2018-05-08T03:38:51.839Z,64.09
2018-05-08T03:39:57.608Z,64.06
2018-05-08T03:41:04.127Z,64.08
2018-05-08T03:42:09.882Z,64.00
2018-05-08T03:43:15.707Z,63.83
2018-05-08T03:44:21.458Z,63.73
2018-05-08T03:45:27.221Z,63.74
2018-05-08T03:46:32.974Z,63.83
2018-05-08T03:47:39.501Z,63.83
2018-05-08T03:48:45.300Z,63.69
2018-05-08T03:49:51.815Z,63.69
2018-05-08T03:50:57.333Z,63.64
2018-05-08T03:52:03.091Z,63.67
2018-05-08T03:53:08.841Z,63.76
2018-05-08T03:54:14.604Z,63.72
2018-05-08T03:55:21.127Z,63.73
2018-05-08T03:56:26.883Z,63.78
2018-05-08T03:57:32.644Z,63.83
2018-05-08T03:58:39.236Z,63.93
2018-05-08T03:59:45.167Z,64.00
2018-05-08T04:01:07.675Z,63.95
2018-05-08T04:02:30.954Z,63.89
2018-05-08T04:03:54.347Z,63.81
2018-05-08T04:05:17.122Z,63.83
2018-05-08T04:08:24.537Z,64.00
2018-05-08T04:09:30.458Z,64.08
2018-05-08T04:10:36.236Z,64.15
2018-05-08T04:11:41.986Z,64.29
2018-05-08T04:12:47.754Z,64.27
2018-05-08T04:13:53.506Z,64.32
2018-05-08T04:14:59.385Z,64.29
2018-05-08T04:16:05.293Z,64.23
2018-05-08T04:17:11.059Z,64.26
2018-05-08T04:18:16.797Z,64.15
2018-05-08T04:19:22.574Z,64.09
2018-05-08T04:20:29.099Z,64.00
2018-05-08T04:21:34.878Z,63.98
2018-05-08T04:22:40.623Z,63.92
2018-05-08T04:23:46.410Z,63.85
2018-05-08T04:24:52.165Z,63.81
2018-05-08T04:25:57.914Z,63.82
2018-05-08T04:27:04.135Z,63.87
2018-05-08T04:28:10.093Z,63.89
2018-05-08T04:29:15.963Z,63.86
2018-05-08T04:30:22.537Z,63.91
2018-05-08T04:31:29.116Z,64.00
2018-05-08T04:32:35.066Z,64.04
2018-05-08T04:33:40.823Z,64.06
2018-05-08T04:34:46.574Z,63.96
2018-05-08T04:35:52.343Z,63.90
2018-05-08T04:36:58.874Z,63.83
2018-05-08T04:38:04.647Z,63.83
2018-05-08T04:39:10.416Z,63.75
2018-05-08T04:40:16.941Z,63.96
2018-05-08T04:41:22.704Z,63.97
2018-05-08T04:42:29.212Z,64.02
2018-05-08T04:43:35.012Z,63.91
2018-05-08T04:44:41.543Z,63.88
2018-05-08T04:45:47.348Z,63.85
2018-05-08T04:46:54.031Z,63.77
2018-05-08T04:47:59.793Z,63.70
2018-05-08T04:49:05.565Z,63.67
2018-05-08T04:50:12.107Z,63.71
2018-05-08T04:51:17.861Z,63.68
2018-05-08T04:52:24.379Z,63.60
2018-05-08T04:53:30.145Z,63.57
2018-05-08T04:54:35.696Z,63.43
2018-05-08T04:55:42.213Z,63.36
2018-05-08T04:56:47.994Z,63.37
2018-05-08T04:57:54.543Z,63.34
2018-05-08T04:59:01.082Z,63.26
2018-05-08T05:00:06.872Z,63.32
2018-05-08T05:01:12.671Z,63.22
2018-05-08T05:02:18.425Z,63.23
2018-05-08T05:03:24.188Z,63.30
2018-05-08T05:04:30.720Z,63.17
2018-05-08T05:05:36.587Z,63.12
2018-05-08T05:06:42.915Z,63.04
2018-05-08T05:07:48.693Z,63.10
2018-05-08T05:08:55.206Z,63.18
2018-05-08T05:10:00.984Z,63.23
2018-05-08T05:11:07.534Z,63.23
2018-05-08T05:12:14.992Z,63.18
2018-05-08T05:13:20.742Z,63.21
2018-05-08T05:14:26.520Z,63.13
2018-05-08T05:15:32.274Z,63.09
2018-05-08T05:16:38.084Z,63.04
2018-05-08T05:17:43.792Z,62.96
2018-05-08T05:18:51.590Z,63.02
2018-05-08T05:19:57.228Z,62.89
2018-05-08T05:21:02.676Z,62.76
2018-05-08T05:22:08.455Z,62.57
2018-05-08T05:23:14.296Z,62.43
2018-05-08T05:24:20.060Z,62.35
2018-05-08T05:25:25.617Z,62.32
2018-05-08T05:26:31.399Z,62.25
2018-05-08T05:27:37.926Z,62.24
2018-05-08T05:28:43.749Z,62.13
2018-05-08T05:29:49.512Z,61.97
2018-05-08T05:30:55.279Z,62.00
2018-05-08T05:32:01.848Z,61.95
2018-05-08T05:33:08.379Z,61.88
2018-05-08T05:34:14.152Z,61.90
2018-05-08T05:35:20.674Z,61.86
2018-05-08T05:36:26.448Z,61.90
2018-05-08T05:37:32.995Z,61.84
2018-05-08T05:38:38.764Z,61.85
2018-05-08T05:39:44.331Z,61.78
2018-05-08T05:40:50.103Z,61.57
2018-05-08T05:41:55.870Z,61.45
2018-05-08T05:43:02.403Z,61.42
2018-05-08T05:44:08.297Z,61.50
2018-05-08T05:45:14.125Z,61.40
2018-05-08T05:46:20.663Z,61.37
2018-05-08T05:47:26.445Z,61.20
2018-05-08T05:48:32.227Z,61.10
2018-05-08T05:49:37.984Z,61.19
2018-05-08T05:50:43.737Z,61.10
2018-05-08T05:51:49.507Z,61.16
2018-05-08T05:52:55.256Z,61.01
2018-05-08T05:54:01.032Z,60.94
2018-05-08T05:55:06.796Z,60.86
2018-05-08T05:56:12.575Z,60.63
2018-05-08T05:57:19.106Z,60.71
2018-05-08T05:58:24.933Z,60.65
2018-05-08T05:59:30.520Z,60.58
2018-05-08T06:00:36.043Z,60.63
2018-05-08T06:01:42.583Z,60.59
2018-05-08T06:02:48.334Z,60.50
2018-05-08T06:03:54.884Z,60.39
2018-05-08T06:05:00.665Z,60.29
2018-05-08T06:06:06.448Z,60.13
2018-05-08T06:07:12.210Z,60.06
2018-05-08T06:08:17.972Z,59.87
2018-05-08T06:09:23.734Z,59.67
2018-05-08T06:10:29.509Z,59.62
2018-05-08T06:11:35.273Z,59.52
2018-05-08T06:12:41.037Z,59.28
2018-05-08T06:13:47.635Z,59.32
2018-05-08T06:14:53.392Z,59.29
2018-05-08T06:15:59.167Z,59.23
2018-05-08T06:17:04.976Z,59.03
2018-05-08T06:18:10.898Z,58.78
2018-05-08T06:19:16.660Z,58.57
2018-05-08T06:20:22.476Z,58.27
2018-05-08T06:21:29.207Z,57.53
2018-05-08T06:22:35.785Z,56.43
2018-05-08T06:23:42.429Z,54.96
2018-05-08T06:24:49.008Z,53.44
2018-05-08T06:25:55.530Z,51.61
2018-05-08T06:27:01.313Z,50.00
2018-05-08T06:28:07.093Z,48.30
2018-05-08T06:29:12.860Z,46.82
2018-05-08T06:30:18.625Z,45.43
2018-05-08T06:31:25.136Z,43.90
2018-05-08T06:32:30.917Z,42.60
2018-05-08T06:33:36.672Z,40.98
2018-05-08T06:34:43.183Z,39.95
2018-05-08T06:35:48.947Z,38.89
2018-05-08T06:36:54.709Z,38.17
2018-05-08T06:38:01.266Z,37.43
2018-05-08T06:39:06.920Z,36.49
2018-05-08T06:40:13.443Z,35.32
2018-05-08T06:41:19.186Z,34.44
2018-05-08T06:42:24.945Z,33.75
2018-05-08T06:43:30.708Z,32.83
2018-05-08T06:44:36.471Z,32.43
2018-05-08T06:45:42.218Z,31.89
2018-05-08T06:46:48.017Z,31.80
2018-05-08T06:47:54.534Z,31.57
2018-05-08T06:49:00.435Z,31.28
2018-05-08T06:50:06.955Z,30.61
2018-05-08T06:51:12.699Z,30.03
2018-05-08T06:52:18.448Z,29.25
2018-05-08T06:53:23.968Z,28.97
2018-05-08T06:54:29.515Z,28.83
2018-05-08T06:55:35.275Z,28.36
2018-05-08T06:56:41.812Z,27.62
2018-05-08T06:57:47.576Z,27.52
2018-05-08T06:58:54.111Z,27.48
2018-05-08T06:59:59.895Z,27.51
2018-05-08T07:01:05.640Z,26.92
2018-05-08T07:02:11.395Z,26.27
2018-05-08T07:03:17.158Z,25.62
2018-05-08T07:04:22.931Z,25.66
2018-05-08T07:05:28.708Z,25.80
2018-05-08T07:06:34.456Z,25.50
2018-05-08T07:07:40.265Z,25.24
2018-05-08T07:08:46.011Z,25.11
2018-05-08T07:09:52.539Z,24.96
2018-05-08T07:10:58.319Z,25.00
2018-05-08T07:12:04.606Z,24.88
2018-05-08T07:13:10.370Z,25.02
2018-05-08T07:14:16.192Z,24.44
2018-05-08T07:15:22.085Z,24.06
2018-05-08T07:16:27.860Z,24.30
2018-05-08T07:17:33.620Z,24.28
2018-05-08T07:18:39.385Z,23.92
2018-05-08T07:19:45.149Z,23.86
2018-05-08T07:20:51.671Z,24.07
2018-05-08T07:21:57.853Z,24.14
2018-05-08T07:23:03.616Z,23.90
2018-05-08T07:24:10.142Z,23.36
2018-05-08T07:25:15.891Z,23.29
2018-05-08T07:26:21.648Z,23.28
2018-05-08T07:27:27.431Z,23.38
2018-05-08T07:28:33.223Z,23.58
2018-05-08T07:29:38.963Z,23.58
2018-05-08T07:30:44.723Z,23.42
2018-05-08T07:31:51.455Z,23.29
2018-05-08T07:32:58.724Z,23.03
2018-05-08T07:34:04.475Z,22.86
2018-05-08T07:35:10.223Z,22.56
2018-05-08T07:36:15.994Z,22.65
2018-05-08T07:37:22.518Z,22.00
2018-05-08T07:38:28.368Z,21.80
2018-05-08T07:39:34.131Z,22.14
2018-05-08T07:40:40.656Z,22.00
2018-05-08T07:41:46.419Z,21.76
2018-05-08T07:42:52.171Z,21.65
2018-05-08T07:43:57.943Z,21.77
2018-05-08T07:45:03.710Z,21.69
2018-05-08T07:46:09.476Z,21.73
2018-05-08T07:47:15.239Z,21.60
2018-05-08T07:48:21.789Z,21.45
2018-05-08T07:49:27.564Z,21.11
2018-05-08T07:50:33.334Z,20.85
2018-05-08T07:51:39.137Z,20.29
2018-05-08T07:52:45.845Z,20.36
2018-05-08T07:53:51.603Z,20.17
2018-05-08T07:54:57.451Z,20.31
2018-05-08T07:56:03.239Z,20.43
2018-05-08T07:57:08.991Z,20.05
2018-05-08T07:58:14.758Z,20.39
2018-05-08T07:59:20.511Z,20.16
2018-05-08T08:00:26.305Z,19.77
2018-05-08T08:01:32.059Z,19.60
2018-05-08T08:02:37.832Z,19.12
2018-05-08T08:03:43.584Z,19.01
2018-05-08T08:04:49.550Z,18.83
2018-05-08T08:05:55.319Z,18.94
2018-05-08T08:07:01.090Z,18.77
2018-05-08T08:08:06.842Z,18.68
2018-05-08T08:09:13.105Z,18.62
2018-05-08T08:10:18.599Z,18.31
2018-05-08T08:11:24.109Z,18.48
2018-05-08T08:12:29.632Z,18.59
2018-05-08T08:13:36.068Z,18.88
2018-05-08T08:14:42.319Z,18.50
2018-05-08T08:15:48.563Z,18.49
2018-05-08T08:16:54.836Z,18.55
2018-05-08T08:18:00.364Z,18.51
2018-05-08T08:19:05.366Z,18.07
2018-05-08T08:20:10.986Z,17.99
2018-05-08T08:21:16.261Z,18.03
2018-05-08T08:22:21.778Z,17.98
2018-05-08T08:23:27.031Z,17.60
2018-05-08T08:24:32.280Z,17.25
2018-05-08T08:25:37.774Z,17.42
2018-05-08T08:26:44.027Z,17.36
2018-05-08T08:27:50.298Z,17.63
2018-05-08T08:28:55.783Z,17.82
2018-05-08T08:30:01.274Z,17.53
2018-05-08T08:31:06.754Z,17.72
2018-05-08T08:32:12.245Z,18.04
2018-05-08T08:33:17.755Z,18.24
2018-05-08T08:34:23.455Z,18.01
2018-05-08T08:35:28.956Z,17.50
2018-05-08T08:36:34.435Z,17.44
2018-05-08T08:37:39.931Z,17.57
2018-05-08T08:38:45.454Z,17.41
2018-05-08T08:39:51.707Z,17.26
2018-05-08T08:40:57.982Z,17.12
2018-05-08T08:42:03.451Z,17.06
2018-05-08T08:43:08.938Z,16.87
2018-05-08T08:44:14.446Z,16.25
2018-05-08T08:45:19.937Z,16.42
2018-05-08T08:46:25.221Z,16.31
2018-05-08T08:47:30.919Z,16.24
2018-05-08T08:48:36.592Z,16.59
2018-05-08T08:49:41.866Z,16.63
2018-05-08T08:50:47.346Z,16.49
2018-05-08T08:51:52.832Z,16.68
2018-05-08T08:52:59.091Z,16.52
2018-05-08T08:54:04.345Z,16.38
2018-05-08T08:55:09.844Z,16.04
2018-05-08T08:56:15.326Z,16.05
2018-05-08T08:57:21.585Z,16.11
2018-05-08T08:58:27.076Z,16.55
2018-05-08T08:59:32.571Z,17.22
2018-05-08T09:00:38.069Z,17.67
2018-05-08T09:01:43.559Z,17.45
2018-05-08T09:02:49.816Z,17.28
2018-05-08T09:03:55.360Z,17.45
2018-05-08T09:05:01.087Z,17.68
2018-05-08T09:06:07.330Z,17.55
2018-05-08T09:07:13.584Z,17.74
2018-05-08T09:08:19.899Z,17.43
2018-05-08T09:09:25.375Z,17.01
2018-05-08T09:10:31.414Z,16.75
2018-05-08T09:11:36.909Z,16.35
2018-05-08T09:12:42.402Z,15.75
2018-05-08T09:13:48.418Z,15.18
2018-05-08T09:14:53.667Z,14.98
2018-05-08T09:15:59.939Z,15.09
2018-05-08T09:17:05.430Z,15.58
2018-05-08T09:18:10.917Z,15.80
2018-05-08T09:19:16.424Z,16.22
2018-05-08T09:20:21.903Z,16.31
2018-05-08T09:21:27.422Z,16.04
2018-05-08T09:22:32.907Z,16.57
2018-05-08T09:23:38.392Z,16.76
2018-05-08T09:24:43.875Z,16.91
2018-05-08T09:25:49.352Z,16.93
2018-05-08T09:26:55.627Z,16.83
2018-05-08T09:28:01.120Z,16.67
2018-05-08T09:29:06.608Z,16.17
2018-05-08T09:30:12.102Z,16.33
2018-05-08T09:31:18.362Z,16.26
2018-05-08T09:32:24.624Z,16.45
2018-05-08T09:33:30.123Z,16.01
2018-05-08T09:34:35.617Z,16.00
2018-05-08T09:35:42.201Z,16.12
2018-05-08T09:36:48.285Z,16.13
2018-05-08T09:37:54.046Z,16.14
2018-05-08T09:38:59.558Z,16.19
2018-05-08T09:40:04.508Z,16.01
2018-05-08T09:41:10.262Z,16.12
2018-05-08T09:42:16.039Z,15.98
2018-05-08T09:43:21.833Z,16.05
2018-05-08T09:44:27.579Z,15.90
2018-05-08T09:45:34.844Z,15.57
2018-05-08T09:46:40.638Z,15.46
2018-05-08T09:47:46.519Z,15.37
2018-05-08T09:48:52.307Z,15.75
2018-05-08T09:49:58.268Z,16.41
2018-05-08T09:51:04.024Z,16.53
2018-05-08T09:52:09.767Z,16.34
2018-05-08T09:53:15.556Z,16.18
2018-05-08T09:54:22.088Z,16.13
2018-05-08T09:55:27.996Z,16.31
2018-05-08T09:56:34.508Z,16.44
2018-05-08T09:57:40.271Z,16.49
2018-05-08T09:58:46.050Z,16.21
2018-05-08T09:59:51.580Z,16.15
2018-05-08T10:00:57.423Z,16.30
2018-05-08T10:02:03.076Z,16.12
2018-05-08T10:03:08.828Z,16.21
2018-05-08T10:04:14.591Z,16.42
2018-05-08T10:05:20.355Z,16.74
2018-05-08T10:06:26.128Z,16.65
2018-05-08T10:07:31.976Z,16.87
2018-05-08T10:08:37.711Z,16.76
2018-05-08T10:09:43.496Z,16.92
2018-05-08T10:10:49.239Z,16.99
2018-05-08T10:11:55.042Z,17.19
2018-05-08T10:13:00.825Z,17.43
2018-05-08T10:14:06.568Z,17.32
2018-05-08T10:15:12.362Z,17.33
2018-05-08T10:16:18.106Z,17.52
2018-05-08T10:17:23.877Z,17.60
2018-05-08T10:18:29.628Z,17.66
2018-05-08T10:19:35.397Z,17.88
2018-05-08T10:20:41.195Z,18.05
2018-05-08T10:21:47.160Z,18.12
2018-05-08T10:22:52.927Z,18.43
2018-05-08T10:23:58.703Z,18.98
2018-05-08T10:25:03.890Z,19.38
2018-05-08T10:26:09.669Z,19.54
2018-05-08T10:27:15.424Z,19.68
2018-05-08T10:28:21.197Z,20.13
2018-05-08T10:29:26.985Z,20.83
2018-05-08T10:30:33.511Z,21.18
2018-05-08T10:31:39.399Z,21.34
2018-05-08T10:32:45.959Z,21.47
2018-05-08T10:33:52.512Z,21.52
2018-05-08T10:34:59.082Z,21.41
2018-05-08T10:36:04.836Z,21.63
2018-05-08T10:37:10.630Z,21.72
2018-05-08T10:38:17.909Z,21.63
2018-05-08T10:39:23.663Z,21.97
2018-05-08T10:40:29.975Z,22.57
2018-05-08T10:41:35.418Z,22.92
2018-05-08T10:42:41.257Z,23.19
2018-05-08T10:43:47.919Z,23.39
2018-05-08T10:44:53.682Z,23.68
2018-05-08T10:46:00.935Z,23.72
2018-05-08T10:47:06.705Z,24.22
2018-05-08T10:48:12.479Z,24.56
2018-05-08T10:49:18.243Z,24.91
2018-05-08T10:50:24.008Z,24.97
2018-05-08T10:51:29.759Z,25.03
2018-05-08T10:52:35.512Z,25.19
2018-05-08T10:53:41.389Z,25.56
2018-05-08T10:54:47.952Z,25.73
2018-05-08T10:55:54.052Z,26.07
2018-05-08T10:56:59.824Z,26.19
2018-05-08T10:58:06.352Z,26.38
2018-05-08T10:59:12.134Z,26.43
2018-05-08T11:00:17.895Z,26.29
2018-05-08T11:01:23.655Z,26.44
2018-05-08T11:02:29.412Z,26.45
2018-05-08T11:03:35.168Z,26.32
2018-05-08T11:04:40.960Z,26.65
2018-05-08T11:05:46.723Z,27.00
2018-05-08T11:06:52.242Z,27.33
2018-05-08T11:07:57.997Z,27.54
2018-05-08T11:09:03.285Z,27.78
2018-05-08T11:10:09.838Z,27.27
2018-05-08T11:11:15.603Z,27.19
2018-05-08T11:12:22.187Z,27.36
2018-05-08T11:13:28.128Z,27.45
2018-05-08T11:14:33.893Z,27.68
2018-05-08T11:15:39.673Z,27.94
2018-05-08T11:16:46.195Z,28.22
2018-05-08T11:17:51.943Z,28.32
2018-05-08T11:18:57.800Z,28.41
2018-05-08T11:20:03.556Z,28.74
2018-05-08T11:21:10.144Z,28.75
2018-05-08T11:22:15.928Z,28.51
2018-05-08T11:23:21.451Z,28.47
2018-05-08T11:24:27.212Z,28.56
2018-05-08T11:25:32.968Z,28.69
2018-05-08T11:26:38.830Z,28.71
2018-05-08T11:27:44.708Z,28.22
2018-05-08T11:28:50.467Z,28.21
2018-05-08T11:29:56.223Z,28.26
2018-05-08T11:31:02.000Z,28.18
2018-05-08T11:32:08.590Z,28.21
2018-05-08T11:33:14.340Z,28.40
2018-05-08T11:34:20.104Z,28.38
2018-05-08T11:35:25.901Z,28.36
2018-05-08T11:36:32.410Z,28.47
2018-05-08T11:37:38.196Z,28.89
2018-05-08T11:38:44.715Z,29.00
2018-05-08T11:39:50.480Z,29.06
2018-05-08T11:40:56.233Z,29.11
2018-05-08T11:42:02.759Z,29.14
2018-05-08T11:43:08.551Z,29.10
2018-05-08T11:44:14.303Z,29.28
2018-05-08T11:45:20.059Z,29.35
2018-05-08T11:46:25.811Z,29.31
2018-05-08T11:47:31.591Z,29.34
2018-05-08T11:48:38.141Z,29.42
2018-05-08T11:49:43.899Z,29.47
2018-05-08T11:50:50.450Z,29.36
2018-05-08T11:51:56.974Z,29.36
2018-05-08T11:53:02.746Z,29.50
2018-05-08T11:54:08.544Z,29.81
2018-05-08T11:55:14.295Z,29.98
2018-05-08T11:56:20.056Z,29.98
2018-05-08T11:57:25.819Z,29.91
2018-05-08T11:58:31.581Z,29.94
2018-05-08T11:59:38.118Z,29.85
2018-05-08T12:00:43.879Z,29.81
2018-05-08T12:01:50.406Z,29.59
2018-05-08T12:02:56.176Z,29.69
2018-05-08T12:04:02.701Z,29.78
2018-05-08T12:05:09.230Z,29.91
2018-05-08T12:06:14.982Z,29.91
2018-05-08T12:07:20.739Z,29.96
2018-05-08T12:08:26.507Z,29.96
2018-05-08T12:09:32.256Z,29.92
2018-05-08T12:10:38.831Z,29.84
2018-05-08T12:11:45.344Z,30.04
2018-05-08T12:12:51.107Z,30.18
2018-05-08T12:13:56.850Z,30.42
2018-05-08T12:15:03.383Z,30.37
2018-05-08T12:16:09.160Z,30.04
2018-05-08T12:17:15.690Z,30.04
2018-05-08T12:18:21.758Z,30.16
2018-05-08T12:19:27.508Z,30.26
2018-05-08T12:20:34.020Z,30.30
2018-05-08T12:21:39.795Z,30.18
2018-05-08T12:22:45.544Z,30.21
2018-05-08T12:23:51.299Z,30.27
2018-05-08T12:24:57.815Z,30.33
2018-05-08T12:26:03.570Z,30.47
2018-05-08T12:27:09.331Z,30.49
2018-05-08T12:28:15.854Z,30.55
2018-05-08T12:29:21.595Z,30.45
2018-05-08T12:30:28.115Z,30.53
2018-05-08T12:31:33.880Z,30.51
2018-05-08T12:32:39.698Z,30.42
2018-05-08T12:33:45.469Z,30.28
2018-05-08T12:34:51.214Z,30.27
2018-05-08T12:35:56.964Z,30.54
2018-05-08T12:37:02.748Z,30.55
2018-05-08T12:38:09.277Z,30.51
2018-05-08T12:39:15.053Z,30.38
2018-05-08T12:40:21.579Z,30.38
2018-05-08T12:41:27.421Z,30.22
2018-05-08T12:42:32.984Z,30.19
2018-05-08T12:43:39.501Z,30.11
2018-05-08T12:44:45.271Z,30.01
2018-05-08T12:45:51.793Z,30.13
2018-05-08T12:46:57.545Z,30.33
2018-05-08T12:48:03.088Z,30.38
2018-05-08T12:49:08.844Z,30.34
2018-05-08T12:50:14.425Z,30.31
2018-05-08T12:51:20.473Z,30.47
2018-05-08T12:52:26.988Z,30.47
2018-05-08T12:53:32.790Z,30.54
2018-05-08T12:54:38.535Z,30.39
2018-05-08T12:55:44.296Z,30.03
2018-05-08T12:56:50.100Z,29.96
2018-05-08T12:57:55.849Z,29.90
2018-05-08T12:59:01.675Z,29.94
2018-05-08T13:00:08.392Z,29.95
2018-05-08T13:01:14.172Z,29.96
2018-05-08T13:02:20.705Z,30.04
2018-05-08T13:03:26.457Z,30.18
2018-05-08T13:04:32.281Z,30.31
2018-05-08T13:05:38.804Z,30.28
2018-05-08T13:06:44.561Z,30.02
2018-05-08T13:07:50.376Z,29.90
2018-05-08T13:08:56.974Z,29.91
2018-05-08T13:10:02.746Z,29.76
2018-05-08T13:11:08.268Z,29.67
2018-05-08T13:12:14.017Z,29.61
2018-05-08T13:13:19.544Z,29.70
2018-05-08T13:14:25.436Z,29.67
2018-05-08T13:15:31.981Z,29.51
2018-05-08T13:16:38.501Z,29.41
2018-05-08T13:17:44.300Z,29.40
2018-05-08T13:18:50.039Z,29.54
2018-05-08T13:19:55.796Z,29.61
2018-05-08T13:21:01.565Z,29.65
2018-05-08T13:22:07.365Z,29.55
2018-05-08T13:23:13.881Z,29.57
2018-05-08T13:24:19.689Z,29.37
2018-05-08T13:25:26.377Z,29.84
2018-05-08T13:26:32.140Z,29.92
2018-05-08T13:27:38.694Z,29.97
2018-05-08T13:28:44.544Z,29.91
2018-05-08T13:29:50.379Z,29.96
2018-05-08T13:30:56.237Z,29.91
2018-05-08T13:32:02.144Z,29.75
2018-05-08T13:33:07.900Z,29.50
2018-05-08T13:34:13.643Z,29.37
2018-05-08T13:35:19.398Z,29.37
2018-05-08T13:36:25.168Z,29.14
2018-05-08T13:37:31.677Z,28.94
2018-05-08T13:38:37.452Z,29.01
2018-05-08T13:39:43.321Z,29.11
2018-05-08T13:40:49.834Z,29.09
2018-05-08T13:41:55.644Z,29.20
2018-05-08T13:43:01.387Z,29.28
2018-05-08T13:44:07.210Z,29.24
2018-05-08T13:45:12.961Z,29.24
2018-05-08T13:46:18.714Z,29.27
2018-05-08T13:47:24.537Z,29.21
2018-05-08T13:48:30.287Z,29.17
2018-05-08T13:49:36.032Z,29.07
2018-05-08T13:50:41.862Z,29.06
2018-05-08T13:51:47.613Z,29.09
2018-05-08T13:52:53.396Z,29.28
2018-05-08T13:53:59.177Z,29.52
2018-05-08T13:55:04.832Z,29.43
2018-05-08T13:56:10.516Z,29.40
2018-05-08T13:57:16.288Z,29.02
2018-05-08T13:58:22.610Z,28.44
2018-05-08T13:59:28.365Z,28.04
2018-05-08T14:00:34.125Z,27.95
2018-05-08T14:01:40.648Z,28.02
2018-05-08T14:02:46.398Z,28.00
2018-05-08T14:03:52.183Z,28.00
2018-05-08T14:04:58.476Z,28.12
2018-05-08T14:06:04.224Z,28.06
2018-05-08T14:07:09.980Z,28.04
2018-05-08T14:08:15.763Z,28.14
2018-05-08T14:09:21.594Z,28.03
2018-05-08T14:10:27.534Z,27.95
2018-05-08T14:11:34.051Z,27.94
2018-05-08T14:12:39.800Z,27.95
2018-05-08T14:13:45.540Z,27.89